Time;durP1;ratioP1;P1;durP2;ratioP2;P2;SDS_P1;SDS_P2;PMS_P1;PMS_P2;Temp;Humidity;BMP_temperature;BMP_pressure;BME280_temperature;BME280_humidity;BME280_pressure;Samples;Min_cycle;Max_cycle;Signal;HPM_P1;HPM_P2
2021/07/24 00:00:35;;;;;;;7.18;5.78;;;;;;;22.95;49.92;101472.28;4960679;28;20026;-71
2021/07/24 00:03:01;;;;;;;5.47;4.22;;;;;;;22.96;49.97;101467.88;4944623;28;20035;-71
2021/07/24 00:05:26;;;;;;;4.82;4.32;;;;;;;22.90;49.99;101455.63;4977847;28;20188;-71
2021/07/24 00:07:51;;;;;;;5.95;5.05;;;;;;;22.96;50.07;101467.88;4977415;28;20037;-71
2021/07/24 00:10:17;;;;;;;5.50;4.55;;;;;;;22.96;50.12;101474.03;4977976;28;20027;-71
2021/07/24 00:12:42;;;;;;;5.50;4.80;;;;;;;22.96;50.08;101475.78;4977828;28;20501;-70
2021/07/24 00:15:08;;;;;;;7.63;5.07;;;;;;;22.95;50.08;101472.28;4960406;28;20417;-71
2021/07/24 00:17:33;;;;;;;5.53;4.88;;;;;;;22.95;50.38;101471.41;4960183;28;20054;-71
2021/07/24 00:19:58;;;;;;;6.15;5.50;;;;;;;22.94;49.97;101470.53;4977431;28;20110;-70
2021/07/24 00:22:24;;;;;;;6.10;5.43;;;;;;;22.93;50.00;101460.88;4977679;28;20042;-70
2021/07/24 00:24:49;;;;;;;7.18;5.13;;;;;;;22.95;49.98;101460.84;4960287;28;20030;-71
2021/07/24 00:27:14;;;;;;;6.07;5.18;;;;;;;22.94;50.04;101452.06;4977402;28;20066;-71
2021/07/24 00:29:40;;;;;;;6.10;5.30;;;;;;;22.94;50.15;101452.06;4977224;28;20027;-70
2021/07/24 00:32:05;;;;;;;6.50;5.10;;;;;;;22.94;50.17;101441.50;4977251;28;20050;-70
2021/07/24 00:34:31;;;;;;;5.95;4.95;;;;;;;22.91;50.07;101433.63;4960011;28;20544;-71
2021/07/24 00:36:58;;;;;;;5.68;5.07;;;;;;;22.92;50.11;101431.88;4944238;28;20548;-71
2021/07/24 00:39:23;;;;;;;5.82;5.22;;;;;;;22.91;50.16;101436.28;4959811;28;20042;-71
2021/07/24 00:41:52;;;;;;;7.57;5.18;;;;;;;22.93;50.21;101429.22;4977322;28;20031;-71
2021/07/24 00:44:22;;;;;;;5.75;4.68;;;;;;;22.93;50.29;101436.25;4959971;28;20027;-70
2021/07/24 00:46:49;;;;;;;7.70;5.95;;;;;;;22.92;50.33;101429.22;4977639;28;20133;-70
2021/07/24 00:49:17;;;;;;;7.53;5.03;;;;;;;22.94;50.26;101436.22;4960361;28;20439;-70
2021/07/24 00:51:46;;;;;;;8.13;6.57;;;;;;;22.95;50.22;101431.84;4959830;28;20073;-71
2021/07/24 00:54:12;;;;;;;6.22;5.63;;;;;;;22.92;50.03;101435.38;4959637;28;20042;-70
2021/07/24 00:56:43;;;;;;;7.72;6.43;;;;;;;22.93;50.35;101429.22;4976923;28;20027;-70
2021/07/24 00:59:08;;;;;;;6.95;5.97;;;;;;;22.92;50.16;101416.03;4959295;28;20121;-71
2021/07/24 01:01:36;;;;;;;5.45;4.85;;;;;;;22.92;50.29;101408.13;4976760;28;20073;-71
2021/07/24 01:04:02;;;;;;;6.63;5.95;;;;;;;22.93;50.28;101404.59;4943912;28;20174;-70
2021/07/24 01:06:28;;;;;;;7.45;6.50;;;;;;;22.90;50.25;101399.38;4959382;28;20035;-71
2021/07/24 01:08:53;;;;;;;6.38;5.78;;;;;;;22.89;50.13;101401.13;4959563;28;20074;-71
2021/07/24 01:11:18;;;;;;;6.72;5.47;;;;;;;22.90;50.21;101399.38;4959284;28;20034;-71
2021/07/24 01:13:44;;;;;;;5.82;4.80;;;;;;;22.91;50.37;101401.97;4943370;28;20114;-72
2021/07/24 01:16:12;;;;;;;6.43;5.72;;;;;;;22.92;50.37;101392.31;4976544;28;20082;-72
2021/07/24 01:18:37;;;;;;;6.72;5.97;;;;;;;22.91;50.36;101391.44;4976360;28;20031;-72
2021/07/24 01:21:07;;;;;;;7.43;6.18;;;;;;;22.90;50.35;101387.06;4976572;28;20092;-72
2021/07/24 01:23:32;;;;;;;8.50;6.20;;;;;;;22.90;49.99;101389.69;4976482;28;20027;-72
2021/07/24 01:25:58;;;;;;;5.93;5.28;;;;;;;22.88;50.33;101391.47;4976762;28;20035;-72
2021/07/24 01:28:32;;;;;;;6.93;6.20;;;;;;;22.90;50.42;101384.41;4976255;28;20026;-72
2021/07/24 01:30:59;;;;;;;5.95;5.38;;;;;;;22.88;50.30;101387.97;4976094;28;20027;-72
2021/07/24 01:33:25;;;;;;;6.80;6.20;;;;;;;22.91;50.29;101380.00;4976222;28;20027;-72
2021/07/24 01:35:51;;;;;;;6.95;5.40;;;;;;;22.88;50.32;101374.78;4976142;28;20042;-72
2021/07/24 01:38:18;;;;;;;7.05;6.25;;;;;;;22.90;50.44;101373.00;4958953;28;20429;-72
2021/07/24 01:40:43;;;;;;;8.93;6.25;;;;;;;22.89;50.32;101360.69;4958903;28;20034;-72
2021/07/24 01:43:09;;;;;;;6.38;5.78;;;;;;;22.90;50.59;101351.91;4958779;28;20034;-72
2021/07/24 01:45:36;;;;;;;7.00;5.55;;;;;;;22.89;50.32;101339.59;4977726;28;20058;-72
2021/07/24 01:48:04;;;;;;;7.07;5.95;;;;;;;22.89;50.42;101337.84;4975878;28;20074;-72
2021/07/24 01:53:14;;;;;;;8.13;6.38;;;;;;;22.89;50.54;101326.41;4975968;28;20030;-72
2021/07/24 01:55:47;;;;;;;8.23;5.88;;;;;;;22.91;50.43;101324.63;4942649;28;20046;-72
2021/07/24 01:58:16;;;;;;;7.43;6.32;;;;;;;22.88;50.55;101316.75;4976057;28;20027;-72
2021/07/24 02:00:44;;;;;;;7.03;6.32;;;;;;;22.90;50.51;101318.47;4958292;28;20058;-72
2021/07/24 02:03:15;;;;;;;6.90;6.18;;;;;;;22.90;50.54;101313.22;4958414;28;20042;-72
2021/07/24 02:05:45;;;;;;;6.68;5.93;;;;;;;22.89;50.30;101311.47;4958300;28;20031;-72
2021/07/24 02:08:11;;;;;;;6.63;5.93;;;;;;;22.88;50.38;101307.06;4975548;28;20385;-72
2021/07/24 02:10:39;;;;;;;6.28;5.68;;;;;;;22.90;50.35;101297.38;4958210;28;20797;-72
2021/07/24 02:13:05;;;;;;;6.45;5.85;;;;;;;22.90;50.79;101289.47;4975504;28;20030;-72
2021/07/24 02:15:32;;;;;;;6.88;6.18;;;;;;;22.90;50.55;101286.84;4975560;28;20045;-72
2021/07/24 02:18:00;;;;;;;7.85;6.82;;;;;;;22.85;50.65;101272.84;4975526;28;20027;-72
2021/07/24 02:20:25;;;;;;;6.57;5.78;;;;;;;22.88;50.48;101275.44;4975598;28;20109;-72
2021/07/24 02:22:50;;;;;;;6.63;5.88;;;;;;;22.90;50.48;101283.31;4975378;28;20053;-72
2021/07/24 02:25:16;;;;;;;6.28;5.60;;;;;;;22.88;50.38;101282.47;4958070;28;20074;-72
2021/07/24 02:27:49;;;;;;;6.40;5.20;;;;;;;22.90;50.57;101291.22;4942034;28;20037;-72
2021/07/24 02:30:14;;;;;;;7.93;6.25;;;;;;;22.91;50.62;101300.88;4975144;28;20031;-72
2021/07/24 02:32:41;;;;;;;6.75;5.85;;;;;;;22.90;50.95;101302.66;4957906;28;20085;-72
2021/07/24 02:35:07;;;;;;;6.43;5.30;;;;;;;22.91;50.47;101296.50;4975286;28;20482;-72
2021/07/24 02:37:33;;;;;;;6.18;5.40;;;;;;;22.90;50.57;101292.09;4975149;28;20500;-72
2021/07/24 02:39:58;;;;;;;6.95;6.25;;;;;;;22.87;50.75;101273.69;4975279;28;20027;-72
2021/07/24 02:42:24;;;;;;;6.78;6.05;;;;;;;22.88;50.77;101272.78;4957938;28;20045;-71
2021/07/24 02:44:49;;;;;;;7.32;6.63;;;;;;;22.90;50.44;101278.03;4975141;28;20389;-72
2021/07/24 02:47:14;;;;;;;7.43;6.20;;;;;;;22.90;50.48;101278.91;4975037;28;20129;-72
2021/07/24 02:49:40;;;;;;;7.15;5.90;;;;;;;22.90;50.49;101267.50;4957628;28;20043;-72
2021/07/24 02:52:06;;;;;;;6.93;6.22;;;;;;;22.90;50.63;101267.50;4958013;28;20057;-72
2021/07/24 02:54:31;;;;;;;5.88;5.28;;;;;;;22.89;50.57;101253.44;4974968;28;20062;-72
2021/07/24 02:56:56;;;;;;;6.65;5.82;;;;;;;22.88;50.56;101256.09;4974882;28;20121;-72
2021/07/24 02:59:22;;;;;;;6.32;5.53;;;;;;;22.87;50.59;101254.34;4974977;28;20128;-72
2021/07/24 03:01:47;;;;;;;6.57;5.85;;;;;;;22.86;50.57;101256.13;4957602;28;20031;-73
2021/07/24 03:04:12;;;;;;;7.80;6.13;;;;;;;22.87;50.69;101246.44;4957545;28;20105;-72
2021/07/24 03:06:38;;;;;;;6.13;5.00;;;;;;;22.90;50.67;101256.94;4957615;28;20030;-72
2021/07/24 03:09:06;;;;;;;6.18;5.57;;;;;;;22.88;50.58;101259.63;4941365;28;20035;-72
2021/07/24 03:11:32;;;;;;;6.95;6.30;;;;;;;22.85;50.67;101249.09;4974815;28;20030;-72
2021/07/24 03:13:57;;;;;;;7.68;6.50;;;;;;;22.86;50.51;101255.25;4974894;28;20145;-72
2021/07/24 03:16:22;;;;;;;6.88;6.10;;;;;;;22.86;50.70;101261.41;4941518;28;20043;-72
2021/07/24 03:18:48;;;;;;;7.35;6.07;;;;;;;22.86;50.78;101258.75;4974838;28;20054;-72
2021/07/24 03:21:13;;;;;;;7.57;5.90;;;;;;;22.87;51.07;101241.16;4941464;28;20056;-72
2021/07/24 03:23:38;;;;;;;6.47;5.68;;;;;;;22.88;50.58;101233.25;4960534;28;20515;-72
2021/07/24 03:26:08;;;;;;;6.68;5.68;;;;;;;22.87;50.54;101222.72;4961321;28;20461;-72
2021/07/24 03:28:34;;;;;;;7.43;5.93;;;;;;;22.86;50.57;101221.84;4978706;28;20397;-72
2021/07/24 03:30:59;;;;;;;7.15;6.25;;;;;;;22.87;50.63;101223.59;4960990;28;20121;-72
2021/07/24 03:33:25;;;;;;;6.97;5.38;;;;;;;22.87;50.53;101222.72;4961061;28;20035;-72
2021/07/24 03:35:50;;;;;;;6.53;5.93;;;;;;;22.88;50.57;101230.59;4978481;28;20037;-72
2021/07/24 03:38:15;;;;;;;8.85;6.35;;;;;;;22.87;50.60;101228.84;4961044;28;20070;-72
2021/07/24 03:40:43;;;;;;;7.57;5.28;;;;;;;22.87;50.77;101228.84;4978332;28;20051;-72
2021/07/24 03:43:09;;;;;;;6.20;5.60;;;;;;;22.88;50.52;101238.50;4961168;28;20437;-72
2021/07/24 03:45:34;;;;;;;7.53;6.57;;;;;;;22.88;50.59;101240.28;4960771;28;20086;-72
2021/07/24 03:48:01;;;;;;;6.35;5.63;;;;;;;22.87;50.54;101231.50;4978070;28;20042;-72
2021/07/24 03:50:26;;;;;;;8.27;6.45;;;;;;;22.87;50.71;101228.84;4978040;28;20482;-72
2021/07/24 03:52:52;;;;;;;6.40;5.70;;;;;;;22.88;50.53;101232.38;4978284;28;20041;-72
2021/07/24 03:55:17;;;;;;;8.30;6.38;;;;;;;22.87;50.54;101222.72;4960777;28;20058;-72
2021/07/24 03:57:43;;;;;;;7.07;6.22;;;;;;;22.85;50.64;101206.06;4960753;28;20516;-72
2021/07/24 04:00:09;;;;;;;8.35;6.88;;;;;;;22.87;50.66;101206.88;4960606;28;20042;-72
2021/07/24 04:02:34;;;;;;;8.38;6.40;;;;;;;22.87;50.73;101205.13;4977888;28;20037;-72
2021/07/24 04:05:01;;;;;;;7.43;6.60;;;;;;;22.85;50.68;101195.53;4960635;28;20504;-72
2021/07/24 04:07:28;;;;;;;8.57;7.13;;;;;;;22.82;50.55;101170.06;4960579;28;20042;-72
2021/07/24 04:09:54;;;;;;;7.97;6.55;;;;;;;22.83;50.75;101163.03;4977737;28;20030;-72
2021/07/24 04:12:19;;;;;;;8.80;6.72;;;;;;;22.85;50.66;101167.34;4960595;28;20041;-72
2021/07/24 04:14:45;;;;;;;7.25;6.47;;;;;;;22.83;50.68;101169.19;4944466;28;20173;-71
2021/07/24 04:17:11;;;;;;;8.85;7.13;;;;;;;22.84;50.60;101164.78;4960303;28;20042;-71
2021/07/24 04:19:37;;;;;;;7.22;6.30;;;;;;;22.86;50.69;101163.81;4977536;28;20109;-71
2021/07/24 04:22:02;;;;;;;6.97;6.07;;;;;;;22.85;50.53;101154.16;4977826;28;20502;-71
2021/07/24 04:24:27;;;;;;;6.95;6.22;;;;;;;22.86;50.63;101163.81;4977696;28;20027;-71
2021/07/24 04:26:53;;;;;;;7.80;6.43;;;;;;;22.88;50.81;101158.53;4960625;28;20501;-71
2021/07/24 04:29:18;;;;;;;7.65;6.43;;;;;;;22.86;50.50;101162.94;4977707;28;20490;-71
2021/07/24 04:31:44;;;;;;;7.60;6.55;;;;;;;22.87;50.53;101170.84;4978586;28;20027;-70
2021/07/24 04:34:09;;;;;;;6.18;5.40;;;;;;;22.89;50.63;101189.28;4978338;28;20039;-70
2021/07/24 04:36:34;;;;;;;8.07;7.03;;;;;;;22.89;50.67;101181.38;4965452;28;20042;-72
2021/07/24 04:39:00;;;;;;;7.65;5.93;;;;;;;22.88;50.67;101180.50;4979224;28;20055;-72
2021/07/24 04:41:25;;;;;;;6.93;6.25;;;;;;;22.86;50.77;101171.75;4979046;28;20082;-72
2021/07/24 04:43:50;;;;;;;7.35;5.95;;;;;;;22.87;50.65;101173.47;4960065;28;20038;-72
2021/07/24 04:46:16;;;;;;;6.82;6.00;;;;;;;22.89;50.54;101170.81;4976919;28;20055;-72
2021/07/24 04:48:41;;;;;;;7.72;6.20;;;;;;;22.91;50.57;101182.22;4977426;28;20043;-72
2021/07/24 04:51:07;;;;;;;6.45;5.50;;;;;;;22.92;50.57;101199.78;4976919;28;20063;-72
2021/07/24 04:53:33;;;;;;;7.05;6.35;;;;;;;22.93;50.65;101206.78;4943647;28;20117;-72
2021/07/24 04:56:03;;;;;;;7.13;6.00;;;;;;;22.92;50.37;101202.41;4976944;28;20031;-72
2021/07/24 04:58:30;;;;;;;7.95;7.07;;;;;;;22.88;50.50;101188.41;4977015;28;20379;-72
2021/07/24 05:00:56;;;;;;;7.22;6.10;;;;;;;22.93;50.50;101198.88;4976902;28;20018;-72
2021/07/24 05:03:21;;;;;;;7.70;5.75;;;;;;;22.92;50.63;101197.16;4960054;28;20034;-73
2021/07/24 05:05:47;;;;;;;7.30;6.15;;;;;;;22.93;50.61;101201.53;4943396;28;20049;-72
2021/07/24 05:08:13;;;;;;;8.25;6.75;;;;;;;22.92;50.60;101189.22;4959463;28;20121;-72
2021/07/24 05:10:39;;;;;;;6.75;5.72;;;;;;;22.94;50.59;101192.72;4959518;28;20165;-71
2021/07/24 05:13:05;;;;;;;6.70;5.65;;;;;;;22.94;50.55;101190.94;4976895;28;20493;-71
2021/07/24 05:15:30;;;;;;;6.18;5.57;;;;;;;22.92;50.80;101166.38;4959278;28;20121;-71
2021/07/24 05:17:56;;;;;;;7.85;6.95;;;;;;;22.88;50.53;101171.72;4959090;28;20033;-71
2021/07/24 05:20:24;;;;;;;9.50;8.00;;;;;;;22.71;50.94;101162.31;4959189;28;20035;-71
2021/07/24 05:22:49;;;;;;;10.75;8.63;;;;;;;22.59;51.04;101166.94;4976478;28;20037;-71
2021/07/24 05:25:14;;;;;;;13.77;9.30;;;;;;;22.52;50.93;101176.69;4943069;28;20035;-71
2021/07/24 05:27:40;;;;;;;11.32;10.13;;;;;;;22.48;51.05;101188.16;4959031;28;20122;-70
2021/07/24 05:30:06;;;;;;;13.93;8.88;;;;;;;22.35;51.71;101195.41;4958747;28;20121;-71
2021/07/24 05:32:32;;;;;;;10.77;9.20;;;;;;;22.41;51.41;101181.28;4976497;28;20071;-71
2021/07/24 05:34:58;;;;;;;12.40;9.25;;;;;;;22.45;51.17;101169.78;4959019;28;20023;-70
2021/07/24 05:37:23;;;;;;;15.63;10.02;;;;;;;22.53;50.90;101164.38;4927215;28;20117;-71
2021/07/24 05:39:48;;;;;;;10.52;9.18;;;;;;;22.52;50.75;101155.59;4976126;28;20030;-71
2021/07/24 05:42:14;;;;;;;13.20;10.20;;;;;;;22.50;50.87;101157.41;4958860;28;20121;-71
2021/07/24 05:44:39;;;;;;;13.65;10.07;;;;;;;22.45;50.92;101149.59;4976030;28;20105;-71
2021/07/24 05:47:05;;;;;;;14.27;10.93;;;;;;;22.41;51.18;101133.84;4954186;28;20413;-71
2021/07/24 05:49:30;;;;;;;14.07;10.55;;;;;;;22.22;51.61;101133.25;4958467;28;20121;-71
2021/07/24 05:51:55;;;;;;;14.70;11.73;;;;;;;22.06;51.96;101131.78;4974898;28;20042;-71
2021/07/24 05:54:22;;;;;;;19.23;11.90;;;;;;;21.45;53.50;101131.69;4975912;28;20033;-71
2021/07/24 05:56:49;;;;;;;13.02;11.00;;;;;;;21.32;53.88;101134.47;4975921;28;20026;-71
2021/07/24 05:59:15;;;;;;;13.52;10.90;;;;;;;21.26;54.25;101144.22;4958969;28;20061;-71
2021/07/24 06:01:40;;;;;;;16.65;10.73;;;;;;;21.17;54.30;101137.25;4958552;28;20443;-71
2021/07/24 06:04:05;;;;;;;14.93;10.77;;;;;;;21.27;54.33;101138.06;4975703;28;20389;-71
2021/07/24 06:06:31;;;;;;;13.68;10.75;;;;;;;21.12;54.44;101140.84;4974384;28;20097;-71
2021/07/24 06:08:56;;;;;;;16.40;12.88;;;;;;;21.03;54.76;101131.31;4958341;28;20548;-71
2021/07/24 06:11:21;;;;;;;13.63;10.50;;;;;;;21.34;53.95;101135.34;4975579;28;20035;-71
2021/07/24 06:13:47;;;;;;;13.43;10.02;;;;;;;21.14;54.65;101116.28;4975585;28;20093;-70
2021/07/24 06:16:12;;;;;;;15.13;11.45;;;;;;;21.17;54.75;101115.34;4975627;28;20382;-71
2021/07/24 06:18:37;;;;;;;13.95;10.77;;;;;;;21.36;54.29;101119.53;4975528;28;20485;-70
2021/07/24 06:21:03;;;;;;;13.90;11.40;;;;;;;21.40;54.37;101123.88;4975523;28;20046;-71
2021/07/24 06:23:28;;;;;;;15.05;10.98;;;;;;;21.34;54.49;101116.06;4974030;28;20090;-71
2021/07/24 06:25:54;;;;;;;13.57;10.95;;;;;;;21.32;54.57;101118.69;4975425;28;20026;-71
2021/07/24 06:28:21;;;;;;;15.50;10.88;;;;;;;21.35;54.62;101123.94;4975236;28;20066;-71
2021/07/24 06:30:46;;;;;;;15.30;9.50;;;;;;;21.29;54.89;101120.53;4975106;28;20035;-70
2021/07/24 06:33:12;;;;;;;13.52;10.23;;;;;;;21.35;54.41;101117.78;4975244;28;20046;-70
2021/07/24 06:35:37;;;;;;;12.88;9.88;;;;;;;21.25;54.57;101121.44;4974217;28;20031;-70
2021/07/24 06:38:02;;;;;;;15.55;10.88;;;;;;;21.35;54.11;101113.41;4974215;28;20039;-71
2021/07/24 06:40:28;;;;;;;11.43;9.80;;;;;;;21.47;53.79;101114.13;4958019;28;20358;-71
2021/07/24 06:42:54;;;;;;;13.50;10.73;;;;;;;21.39;53.87;101116.88;4957794;28;20031;-73
2021/07/24 06:45:20;;;;;;;11.40;9.13;;;;;;;21.65;53.38;101119.16;4957595;28;20034;-72
2021/07/24 06:47:45;;;;;;;17.67;11.18;;;;;;;21.72;53.15;101128.72;4975002;28;20031;-72
2021/07/24 06:50:11;;;;;;;14.00;11.25;;;;;;;21.73;53.19;101133.09;4974761;28;20035;-73
2021/07/24 06:52:37;;;;;;;12.65;9.30;;;;;;;21.77;53.24;101134.78;4975124;28;20038;-72
2021/07/24 06:55:03;;;;;;;13.68;9.93;;;;;;;21.81;52.82;101127.72;4975063;28;20101;-72
2021/07/24 06:57:28;;;;;;;15.40;9.63;;;;;;;21.71;52.83;101125.19;4957326;28;20039;-72
2021/07/24 06:59:54;;;;;;;13.63;10.07;;;;;;;21.60;53.42;101110.44;4941720;28;20034;-72
2021/07/24 07:02:19;;;;;;;11.90;8.50;;;;;;;21.72;53.15;101124.31;4941738;28;20082;-72
2021/07/24 07:04:45;;;;;;;10.45;8.02;;;;;;;21.74;52.89;101130.44;4974768;28;20030;-72
2021/07/24 07:07:10;;;;;;;9.98;8.35;;;;;;;21.86;52.49;101121.50;4974981;28;20510;-72
2021/07/24 07:09:35;;;;;;;13.55;8.80;;;;;;;21.86;52.65;101126.75;4941313;28;20038;-71
2021/07/24 07:12:01;;;;;;;14.70;10.95;;;;;;;21.83;52.59;101120.66;4957374;28;20089;-72
2021/07/24 07:14:27;;;;;;;11.68;9.80;;;;;;;21.66;52.91;101116.53;4957510;28;20042;-72
2021/07/24 07:16:53;;;;;;;13.52;9.48;;;;;;;21.72;52.87;101111.16;4974568;28;20023;-71
2021/07/24 07:19:19;;;;;;;17.52;10.43;;;;;;;21.58;53.19;101105.19;4974837;28;20046;-71
2021/07/24 07:21:45;;;;;;;12.15;8.05;;;;;;;21.53;53.33;101104.41;4974541;28;20425;-72
2021/07/24 07:24:11;;;;;;;10.68;8.43;;;;;;;21.54;52.90;101097.41;4974514;28;20038;-72
2021/07/24 07:26:36;;;;;;;12.98;9.05;;;;;;;21.36;53.55;101099.38;4941271;28;20038;-72
2021/07/24 07:29:05;;;;;;;14.25;10.18;;;;;;;21.42;53.58;101085.28;4974617;28;20034;-72
2021/07/24 07:31:31;;;;;;;12.68;9.98;;;;;;;21.46;53.39;101081.69;4974537;28;20031;-72
2021/07/24 07:33:57;;;;;;;13.68;11.18;;;;;;;21.43;53.66;101079.09;4974457;28;20050;-72
2021/07/24 07:36:22;;;;;;;18.60;12.68;;;;;;;21.29;54.00;101081.91;4957517;28;20128;-72
2021/07/24 07:38:47;;;;;;;17.17;12.07;;;;;;;21.20;54.54;101084.66;4957503;28;20049;-72
2021/07/24 07:41:13;;;;;;;16.75;11.60;;;;;;;21.23;54.22;101087.25;4957012;28;20031;-72
2021/07/24 07:43:39;;;;;;;13.25;11.73;;;;;;;21.30;54.18;101080.16;4974386;28;20030;-72
2021/07/24 07:46:04;;;;;;;14.95;12.07;;;;;;;21.30;53.99;101080.16;4974324;28;20047;-72
2021/07/24 07:48:33;;;;;;;16.85;12.82;;;;;;;21.24;54.15;101067.97;4956901;28;20031;-72
2021/07/24 07:50:59;;;;;;;15.93;12.18;;;;;;;21.16;54.48;101071.56;4956918;28;20481;-72
2021/07/24 07:53:24;;;;;;;17.77;12.15;;;;;;;21.26;54.18;101070.56;4974330;28;20038;-72
2021/07/24 07:55:50;;;;;;;14.68;11.57;;;;;;;21.40;53.88;101073.91;4957079;28;20065;-72
2021/07/24 07:58:15;;;;;;;13.85;10.98;;;;;;;21.42;53.75;101074.75;4940993;28;20030;-71
2021/07/24 08:00:40;;;;;;;14.85;11.07;;;;;;;21.38;54.08;101060.75;4956979;28;20179;-72
2021/07/24 08:03:06;;;;;;;17.05;11.77;;;;;;;20.44;56.60;101058.31;4975459;28;20445;-72
2021/07/24 08:05:32;;;;;;;16.00;12.23;;;;;;;20.01;58.19;101063.88;4974358;28;20039;-71
2021/07/24 08:07:57;;;;;;;14.00;11.48;;;;;;;20.22;57.65;101058.47;4974530;28;20034;-71
2021/07/24 08:10:23;;;;;;;20.38;11.23;;;;;;;20.94;55.62;101063.91;4978323;28;20090;-72
2021/07/24 08:12:48;;;;;;;19.42;11.50;;;;;;;21.01;55.04;101043.69;4961823;28;20081;-72
2021/07/24 08:15:14;;;;;;;39.72;11.98;;;;;;;21.47;54.09;101061.50;4961536;28;20034;-72
2021/07/24 08:17:40;;;;;;;27.70;10.75;;;;;;;21.70;53.79;101062.03;4977941;28;20031;-72
2021/07/24 08:20:06;;;;;;;38.13;13.93;;;;;;;21.82;53.49;101055.72;4960843;28;20027;-71
2021/07/24 08:22:32;;;;;;;36.58;11.15;;;;;;;21.92;53.29;101059.97;4960400;28;20022;-72
2021/07/24 08:24:58;;;;;;;25.00;10.15;;;;;;;22.02;53.16;101053.69;4960407;28;20389;-71
2021/07/24 08:27:25;;;;;;;29.80;11.45;;;;;;;22.03;53.24;101056.31;4945375;28;20528;-72
2021/07/24 08:29:50;;;;;;;23.48;10.00;;;;;;;22.10;53.10;101065.84;4960471;28;20118;-72
2021/07/24 08:32:16;;;;;;;19.02;10.23;;;;;;;22.16;53.11;101062.25;4961288;28;20027;-72
2021/07/24 08:34:41;;;;;;;15.23;10.75;;;;;;;21.93;53.55;101059.97;4961813;28;20377;-74
2021/07/24 08:37:07;;;;;;;16.98;11.23;;;;;;;21.78;53.92;101064.59;4960144;28;20481;-73
2021/07/24 08:39:32;;;;;;;14.30;11.43;;;;;;;21.71;54.29;101063.78;4944099;28;20031;-72
2021/07/24 08:41:57;;;;;;;15.65;11.00;;;;;;;21.55;54.74;101057.03;4977428;28;20034;-72
2021/07/24 08:44:23;;;;;;;15.30;11.40;;;;;;;21.64;54.61;101063.03;4944087;28;20038;-73
2021/07/24 08:46:48;;;;;;;13.13;10.90;;;;;;;21.71;54.70;101074.31;4940298;28;20570;-73
2021/07/24 08:49:14;;;;;;;11.10;9.55;;;;;;;21.64;54.63;101057.75;4978973;28;20049;-73
2021/07/24 08:51:40;;;;;;;12.25;9.32;;;;;;;21.75;54.78;101055.84;4979217;28;20057;-73
2021/07/24 08:54:05;;;;;;;15.23;11.60;;;;;;;21.70;54.62;101060.28;4963553;28;20034;-73
2021/07/24 08:56:34;;;;;;;12.13;9.43;;;;;;;21.72;54.63;101047.09;4963569;28;20137;-73
2021/07/24 08:59:02;;;;;;;17.35;10.50;;;;;;;21.69;54.77;101055.03;4996875;28;20029;-73
2021/07/24 09:01:29;;;;;;;12.45;10.90;;;;;;;21.65;55.20;101048.97;4979212;28;20027;-73
2021/07/24 09:04:00;;;;;;;13.18;10.05;;;;;;;21.60;55.46;101039.41;4997573;28;20520;-73
2021/07/24 09:06:29;;;;;;;14.43;10.35;;;;;;;21.66;55.43;101028.78;4996919;28;20031;-73
2021/07/24 09:08:56;;;;;;;12.93;10.60;;;;;;;21.61;55.69;101036.75;4978998;28;20117;-73
2021/07/24 09:11:22;;;;;;;14.60;10.68;;;;;;;21.57;55.79;101039.44;4996613;28;20437;-72
2021/07/24 09:13:47;;;;;;;17.95;10.90;;;;;;;21.51;56.24;101029.88;4979007;28;20026;-75
2021/07/24 09:16:13;;;;;;;12.57;10.95;;;;;;;21.61;55.95;101036.75;4996614;28;20027;-74
2021/07/24 09:18:40;;;;;;;14.63;11.23;;;;;;;21.53;55.80;101036.00;4996623;28;20168;-74
2021/07/24 09:21:06;;;;;;;19.33;12.45;;;;;;;21.57;55.90;101034.16;4995417;28;20025;-72
2021/07/24 09:23:35;;;;;;;13.07;10.18;;;;;;;21.57;55.83;101029.78;4946721;28;20026;-73
2021/07/24 09:26:04;;;;;;;22.58;13.50;;;;;;;21.65;55.94;101037.56;4996014;28;20026;-73
2021/07/24 09:28:30;;;;;;;15.73;11.90;;;;;;;21.38;56.93;101038.84;4978464;28;20106;-73
2021/07/24 09:30:55;;;;;;;13.27;10.52;;;;;;;21.53;56.58;101028.09;4978420;28;20026;-73
2021/07/24 09:33:21;;;;;;;21.77;11.98;;;;;;;21.49;56.54;101025.53;4978402;28;20031;-73
2021/07/24 09:35:53;;;;;;;15.65;10.77;;;;;;;21.57;56.61;101032.41;4978311;28;20030;-72
2021/07/24 09:38:30;;;;;;;11.88;10.27;;;;;;;21.78;55.92;101017.19;4995630;28;20422;-72
2021/07/24 09:40:57;;;;;;;12.88;10.43;;;;;;;21.88;55.62;101024.06;4995698;28;20109;-72
2021/07/24 09:43:40;;;;;;;13.13;11.02;;;;;;;21.73;56.17;101030.44;4995589;28;20031;-73
2021/07/24 09:46:16;;;;;;;14.32;11.80;;;;;;;21.67;56.50;101034.03;4988536;28;20054;-72
2021/07/24 09:48:46;;;;;;;15.05;10.18;;;;;;;21.85;56.16;101017.06;4958656;28;20039;-73
2021/07/24 09:51:13;;;;;;;13.25;10.35;;;;;;;21.83;56.37;101020.59;4958579;28;20038;-73
2021/07/24 09:53:44;;;;;;;13.68;11.68;;;;;;;21.67;56.73;101012.13;4958771;28;20115;-73
2021/07/24 09:56:14;;;;;;;16.13;12.65;;;;;;;21.88;56.14;101014.38;4975996;28;20026;-73
2021/07/24 09:58:40;;;;;;;15.63;11.30;;;;;;;22.01;55.47;101018.59;4976016;28;20496;-73
2021/07/24 10:01:10;;;;;;;19.35;10.73;;;;;;;22.13;55.76;101003.47;4975845;28;20029;-73
2021/07/24 10:03:39;;;;;;;12.73;9.93;;;;;;;22.75;54.21;101013.72;4958393;28;20058;-73
2021/07/24 10:06:11;;;;;;;13.82;11.40;;;;;;;23.00;53.50;101011.47;4958540;28;20418;-72
2021/07/24 10:08:38;;;;;;;14.05;11.32;;;;;;;22.32;55.11;101018.94;4975853;28;20023;-72
2021/07/24 10:11:04;;;;;;;15.63;12.85;;;;;;;22.21;55.75;101020.00;4942381;28;20023;-72
2021/07/24 10:13:29;;;;;;;15.82;11.88;;;;;;;22.06;56.35;101023.78;4958294;28;20042;-70
2021/07/24 10:15:56;;;;;;;14.90;13.30;;;;;;;22.00;56.59;101027.38;4958445;28;20034;-72
2021/07/24 10:18:21;;;;;;;22.30;16.95;;;;;;;22.10;56.10;101018.44;4958217;28;20035;-72
2021/07/24 10:20:49;;;;;;;18.30;15.13;;;;;;;22.10;56.38;101023.69;4958225;28;20030;-72
2021/07/24 10:23:17;;;;;;;21.73;17.00;;;;;;;22.14;56.46;101028.91;4958486;28;20057;-72
2021/07/24 10:25:48;;;;;;;19.60;16.17;;;;;;;22.12;56.56;101020.16;4975241;28;20030;-72
2021/07/24 10:28:22;;;;;;;21.67;17.38;;;;;;;22.03;56.81;101018.56;4957779;28;20034;-72
2021/07/24 10:30:49;;;;;;;23.42;17.92;;;;;;;22.03;56.94;101022.06;4957811;28;20030;-72
2021/07/24 10:33:16;;;;;;;19.63;15.90;;;;;;;22.09;56.97;101014.06;4974626;28;20031;-73
2021/07/24 10:35:43;;;;;;;19.35;17.00;;;;;;;22.21;56.99;101018.25;4975211;28;20023;-72
2021/07/24 10:38:32;;;;;;;25.40;17.15;;;;;;;22.16;56.38;101020.09;4957840;28;20034;-72
2021/07/24 10:41:24;;;;;;;21.55;16.15;;;;;;;22.20;56.54;101018.28;4958595;28;20027;-72
2021/07/24 10:44:05;;;;;;;22.67;15.60;;;;;;;22.06;56.88;101014.13;4943305;28;20042;-73
2021/07/24 10:46:46;;;;;;;20.25;15.05;;;;;;;22.14;56.68;101023.66;4980261;28;20073;-72
2021/07/24 10:49:32;;;;;;;19.48;14.75;;;;;;;22.08;57.26;101017.56;4985782;28;20039;-73
2021/07/24 10:51:57;;;;;;;18.40;15.25;;;;;;;22.14;56.62;101013.13;4976894;28;20038;-72
2021/07/24 10:54:24;;;;;;;21.08;15.63;;;;;;;22.06;56.63;101010.63;4975122;28;20469;-72
2021/07/24 10:56:49;;;;;;;20.52;15.52;;;;;;;22.05;56.84;101006.25;4958187;28;20031;-72
2021/07/24 10:59:24;;;;;;;21.05;15.65;;;;;;;21.90;57.23;101006.47;4975046;28;20037;-72
2021/07/24 11:01:52;;;;;;;20.75;15.02;;;;;;;21.99;57.13;100993.19;4974979;28;20078;-73
2021/07/24 11:04:38;;;;;;;17.45;14.30;;;;;;;22.02;57.13;100987.88;4974849;28;20038;-73
2021/07/24 11:07:12;;;;;;;22.83;15.43;;;;;;;21.99;57.28;100990.53;4974751;28;20038;-72
2021/07/24 11:09:59;;;;;;;22.40;17.02;;;;;;;21.96;57.42;100990.56;4976202;28;20433;-78
2021/07/24 11:12:39;;;;;;;20.88;16.20;;;;;;;22.04;57.43;100991.34;4950780;28;20053;-72
2021/07/24 11:15:09;;;;;;;18.90;15.70;;;;;;;21.94;57.98;100987.94;4974716;28;20385;-72
2021/07/24 11:17:35;;;;;;;18.65;14.82;;;;;;;21.61;59.05;100993.75;4957188;28;20105;-72